Pour une meilleure expérience, merci d'orienter votre écran en mode paysage.

rotate

Club de Triathlon : BEAUVAIS TRIATHLON

Le club de Triathlon BEAUVAIS TRIATHLON se situe dans la ville de BEAUVAIS (60 - Oise). Le club est affilié à la ligue régionale HAUTS DE FRANCE de la FFTRI - Fédération Française de Triathlon. Retrouvez ici toute l'activité du club de Triathlon BEAUVAIS TRIATHLON - Résultats, podiums, objectifs, effectifs....

Site internet : https://beauvais-triathlon.onlinetri.com

Résultats de la saison en cours

CltClt FDateEpreuveNomIPRNbTempsGAClt/GAIP
78 04/07/2022Ch'TriMan 226 Gravelines (59) - Triathlon XXL Ugo TERNISIEN5521211h27'59''MVE3261Sa course
36 03/07/2022Triathlon du Plan d'Eau du Canada (60) - M Etienne BROISSART1123472h25'37''MS21192Sa course
13 03/07/2022Triathlon du Plan d'Eau du Canada (60) - M Matthieu DEWANCKELE1203472h16'56''MV21103Sa course
21 03/07/2022Triathlon du Plan d'Eau du Canada (60) - M Antoine VOTTE973472h19'21''MS2798Sa course
35 03/07/2022Triathlon du Plan d'Eau du Canada (60) - M Julien CARPENTIER773472h25'35''MS3793Sa course
250 03/07/2022Triathlon du Plan d'Eau du Canada (60) - S Noel HOUGUENADE02802h15'45''MV32011Sa course
55 03/07/2022Triathlon du Plan d'Eau du Canada (60) - S Cedric BOULLAND442801h39'03''MV1782Sa course
188 03/07/2022Triathlon du Plan d'Eau du Canada (60) - S Pascal BERNARD02801h59'37''MV31133Sa course
150 03/07/2022Ch'TriMan 113 Gravelines (59) - Triathlon L Olivier MASURE858895h04'35''MVE4583Sa course
113703/07/2022Triathlon du Plan d'Eau du Canada (60) - M Perrine CLUZEL483472h40'25''FS2168Sa course
17 03/07/2022Triathlon du Plan d'Eau du Canada (60) - M Mathieu BLERIOT893472h18'23''MS33100Sa course
1521203/07/2022Triathlon du Plan d'Eau du Canada (60) - M Sandra BEAUVAIS03472h45'40''FV1357Sa course
230 03/07/2022Triathlon du Plan d'Eau du Canada (60) - M Jeremy DELVILLE03472h57'25''MS33534Sa course
158 03/07/2022Triathlon du Plan d'Eau du Canada (60) - M Frederic COLOMB563472h46'26''MV22455Sa course
7 03/07/2022Triathlon du Plan d'Eau du Canada (60) - M Mathieu BOURLET1963472h11'00''MS31153Sa course
40 03/07/2022Triathlon du Plan d'Eau du Canada (60) - M Damien DAYDE703472h26'53''MV1891Sa course
70 03/07/2022Triathlon du Plan d'Eau du Canada (60) - M Xavier DREUMONT783472h33'47''MV2881Sa course
477 03/07/2022Ch'TriMan 113 Gravelines (59) - Triathlon L Sacha LESCORNET08895h51'19''MVE18644Sa course
258 26/06/2022Triathlon de Saint Jean de Monts (85) - M Jean-baptiste RICHARD02932h51'44''MSE1511Sa course
2 26/06/2022Triathlon du Souvenir (55) - M Vincent BRIZION2031152h00'52''MS21181Sa course
11 26/06/2022Garmin Triathlon de Paris (75) - M Julien DELAFOSSE9720102h11'06''0118Sa course
124726/06/2022TriBreizh (29) - Triathlon L Chloe CAZIER6020200'08''FS1133Sa course
153 26/06/2022TriBreizh (29) - Triathlon L Jérémy DAVID5020200'09''MS32417Sa course
3382219/06/2022Triathlon de Deauville (14) - M Perrine CLUZEL4814112h49'45''FS21577Sa course
830 19/06/2022Triathlon de Deauville (14) - M Jeremy DELVILLE014113h11'52''MS314841Sa course
454 19/06/2022Triathlon de Deauville (14) - M Matthieu LOMBARD014112h55'14''MS47368Sa course
2961719/06/2022Triathlon de Deauville (14) - M Chloe CAZIER6014112h47'49''FS1480Sa course
730 19/06/2022Triathlon de Deauville (14) - M Jérémy DAVID5014113h07'46''MS313449Sa course
7 19/06/2022Triathlon de Deauville (14) - M Mathieu BOURLET19614112h17'41''MS32257Sa course
22 19/06/2022Triathlon de Deauville (14) - M Antoine VOTTE9714112h25'45''MS29107Sa course
51 18/06/2022Triathlon de Deauville (14) - L Mathieu BLERIOT895355h12'15''MS31593Sa course
54 12/06/2022Triathlon de Saintes (17) - M Frédéric BUREAU641692h22'15''MVE2266Sa course
34 11/06/2022Triathlon des Moines (59) - S Antoine VOTTE972441h04'35''MS2589Sa course
951111/06/2022Triathlon des Moines (59) - S Perrine CLUZEL482441h13'47''FS2262Sa course
1212111/06/2022Triathlon des Moines (59) - S Julia FAVRESSE02441h17'21''FS4151Sa course
25 05/06/2022Triathlon des Lacs de l'Aube (10) - L Daniel SABIN04584h20'06''MVE598Sa course
64 05/06/2022Triathlon d'Obernai - Benfeld (67) - L Kamal EL OUAFI902995h10'15''MV11179Sa course
DNF 05/06/2022Triathlon du Galon d'Or (17) - L Sandra BEAUVAIS0225FVE Sa course
66 05/06/2022Triathlon du Galon d'Or (17) - L Frédéric BUREAU642254h55'45''MVE4170Sa course
228 05/06/2022Triathlon d'Obernai - Benfeld (67) - L Damien DAYDE702996h20'55''MV13119Sa course
52 05/06/2022Triathlon du Galon d'Or (17) - L Xavier DREUMONT782254h49'57''MVE2877Sa course
22 05/06/2022Triathlon du Galon d'Or (17) - L Olivier BIBOUD992254h33'52''MVE1093Sa course
43 05/06/2022Triathlon de la Côte de Granit Rose (22) - XS Jean-baptiste RICHARD017241'53''MS1577Sa course
DNF 28/05/2022Triathlon de Dijon (21) - M Pascal BERNARD0336MVE Sa course
47 27/05/2022FrenchMan Triathlon - Carcans (33) - L Julien DELAFOSSE979664h19'09''MS41098Sa course
359 27/05/2022FrenchMan Triathlon - Carcans (33) - L Nuno FERNANDES649664h54'09''MV16561Sa course
392 22/05/2022Triathlon du Chemin des Dames (02) - S Noel HOUGUENADE04441h42'55''M MA13712Sa course
2 22/05/2022Triathlon du Chemin des Dames (02) - S Mathieu BOURLET1964441h00'39''MS31314Sa course
547 22/05/2022Triathlon du Chemin des Dames (02) - M Cedric BOULLAND445883h23'30''MVE2914Sa course
23 22/05/2022Triathlon du Chemin des Dames (02) - M Damien DAYDE705882h20'22''MVE8101Sa course
228 22/05/2022Triathlon du Chemin des Dames (02) - M Frederic COLOMB565882h41'59''MVE11560Sa course
24 22/05/2022Triathlon du Chemin des Dames (02) - M Kamal EL OUAFI905882h19'53''MVE9101Sa course
235 22/05/2022Triathlon du Chemin des Dames (02) - S Pascal BERNARD04441h28'04''M MA8548Sa course
7 22/05/2022Triathlon du Chemin des Dames (02) - M Matthieu DEWANCKELE1205882h15'08''MVE3180Sa course
53415/05/2022Triathlon de Choisy-au-Bac (60) - L Chloe CAZIER601105h36'00''FSE446Sa course
34 15/05/2022Triathlon de la Vallée de l'Iton (27) - M Antoine VOTTE973242h18'58''MSE2191Sa course
24 15/05/2022Triathlon de Choisy-au-Bac (60) - L Xavier DREUMONT781105h11'40''MVE1078Sa course
8 15/05/2022Triathlon de Choisy-au-Bac (60) - L Olivier BIBOUD991104h48'42''MVE3106Sa course
245 15/05/2022Triathlon de la Vallée de l'Iton (27) - M Jean-baptiste RICHARD03243h06'48''MSE8919Sa course
51 15/05/2022Triathlon de la Vallée de l'Iton (27) - M Olivier MASURE853242h23'43''MVE2285Sa course
40 15/05/2022Triathlon de Choisy-au-Bac (60) - L Nuno FERNANDES641105h24'30''MVE1960Sa course
13 15/05/2022Triathlon de Choisy-au-Bac (60) - L Kamal EL OUAFI901104h59'22''MVE591Sa course
181 15/05/2022Triathlon de la Vallée de l'Iton (27) - S Pascal BERNARD02321h46'56''MVE5321Sa course
112415/05/2022Triathlon de la Vallée de l'Iton (27) - M Perrine CLUZEL483242h39'06''FSE364Sa course
15 15/05/2022Triathlon de la Vallée de l'Iton (27) - M Matthieu DEWANCKELE1203242h13'51''MVE3101Sa course
215 15/05/2022Triathlon de la Vallée de l'Iton (27) - S Noel HOUGUENADE02322h01'28''MVE696Sa course
4 15/05/2022Triathlon de la Vallée de l'Iton (27) - M Mathieu BOURLET1963242h06'46''MSE4199Sa course
59 15/05/2022Triathlon de Choisy-au-Bac (60) - L Ugo TERNISIEN551105h44'50''MVE3240Sa course
26 15/05/2022Triathlon de la Vallée de l'Iton (27) - M Mathieu BLERIOT893242h16'55''MSE1895Sa course
11 15/05/2022Triathlon de la Vallée de l'Iton (27) - M Etienne BROISSART1123242h10'35''MSE10104Sa course
1423115/05/2022Triathlon de la Vallée de l'Iton (27) - S Charline BONNAY02321h39'01''FSE2138Sa course
17 15/05/2022Triathlon de la Vallée de l'Iton (27) - S Julien DELAFOSSE972321h13'28''MSE1497Sa course
55 15/05/2022Triathlon de la Vallée de l'Iton (27) - M Julien CARPENTIER773242h25'53''MSE3283Sa course
3 01/05/2022Triathlon de l'Âme (45) - M Vincent BRIZION2032692h06'14''MS23223Sa course
31 23/04/2022Duathlon de Noyon (60) - S Mathieu BOURLET19612855'46''MSE2575Sa course
67 23/04/2022Duathlon de Noyon (60) - S Etienne BROISSART11212858'46''MSE4842Sa course
DSQ 23/04/2022Duathlon de Noyon (60) - S Julia FAVRESSE0128FSE Sa course
14 23/04/2022Duathlon de Noyon (60) - S Vincent BRIZION20312853'41''MSE1192Sa course
1983720/03/2022Duathlon de Taisnières-sur-Hon (59) - S Perrine CLUZEL482701h14'58''FSE1624Sa course
1793220/03/2022Duathlon de Taisnières-sur-Hon (59) - S Julia FAVRESSE02701h13'02''FSE1232Sa course
44 20/03/2022Duathlon de Taisnières-sur-Hon (59) - S Etienne BROISSART1122701h00'57''MSE2685Sa course
13 20/03/2022Duathlon de Taisnières-sur-Hon (59) - S Vincent BRIZION20327058'52''MSE10101Sa course
106 20/03/2022Duathlon de Taisnières-sur-Hon (59) - S Xavier DREUMONT782701h06'35''MVE760Sa course
197 20/03/2022Duathlon de Taisnières-sur-Hon (59) - S Jean-baptiste RICHARD02701h14'57''MSE6525Sa course
40 20/03/2022Duathlon de Taisnières-sur-Hon (59) - S Mathieu BOURLET19627059'43''MSE2587Sa course
Pas de résultats pour ce club

Résultats des TRI-CUP de la saison

Résultats du tri-cup-m

AnnéeCltClt/F TCNomIPRGAClt/GA
20229609 Mathieu BOURLET196MS32
202231384 Matthieu DEWANCKELE120MV22
202258296 Antoine VOTTE97MS212
20221689209 Perrine CLUZEL48FS22

Résultats des TRI-CUP des saisons passées

Résultats du TRI-CUP LD

TRI-CUPAnnéeCltClt/F TCNomIPRGAClt/GA
TRI-CUP LD2019447226 Antoine VOTTE97MS118
TRI-CUP LD2019601182 Frédéric BUREAU64MV353
TRI-CUP LD2019741138 Rémi DALONGEVILLE0MS298
TRI-CUP LD2018338263 Julien GALOT95MS368
TRI-CUP LD2018346261 Gael CAZIER0MV244
TRI-CUP LD2018609198 Kamal EL OUAFI90MS495
TRI-CUP LD2018624196 Frédéric BUREAU64MV346
TRI-CUP LD2018713175 Damien DAYDE70MS4110

Résultats du TRI-CUP M

TRI-CUPAnnéeCltClt/F TCNomIPRGAClt/GA
TRI-CUP M202119569 Mathieu BOURLET196MS32
TRI-CUP M202144141108 Marine FONTES27FS17
TRI-CUP M201916725 Mathieu BOURLET196MS25
TRI-CUP M2019124358 Matthieu DEWANCKELE120MV117
TRI-CUP M2019286278 Kamal EL OUAFI90MS450
TRI-CUP M2019408257 Damien DAYDE70MS471
TRI-CUP M2019508240 Xavier DREUMONT78MV268
TRI-CUP M2019567232 Etienne BROISSART112MS295
TRI-CUP M2019656214 Francois BREMAND79MV292
TRI-CUP M201994852165 Perrine CLUZEL48FS18
TRI-CUP M20191082140 Eric PIGUET0MV449
TRI-CUP M2019142830 Noel HOUGUENADE0MV2234
TRI-CUP M20188838 Victor DEBIL CAUX0MS42
TRI-CUP M2018108366 Matthieu DEWANCKELE120MV115
TRI-CUP M2018139317 Mathieu BOURLET196MS232
TRI-CUP M2018254271 Etienne BROISSART112MS253
TRI-CUP M2018102574 Noel HOUGUENADE0MV2168

Podiums du club

Clt/GAGADateEpreuveNomIPRClt FCltNbTempsIP
1MV203/07/2022Triathlon du Plan d'Eau du Canada (60) - MMatthieu DEWANCKELE120133472h16'56''103RésultatsSa course
1FS203/07/2022Triathlon du Plan d'Eau du Canada (60) - MPerrine CLUZEL4871133472h40'25''68RésultatsSa course
1MS303/07/2022Triathlon du Plan d'Eau du Canada (60) - MMathieu BOURLET19673472h11'00''153RésultatsSa course
3MS303/07/2022Triathlon du Plan d'Eau du Canada (60) - MMathieu BLERIOT89173472h18'23''100RésultatsSa course
3FV103/07/2022Triathlon du Plan d'Eau du Canada (60) - MSandra BEAUVAIS0121523472h45'40''57RésultatsSa course
1MS226/06/2022Triathlon du Souvenir (55) - MVincent BRIZION20321152h00'52''181RésultatsSa course
1FS126/06/2022TriBreizh (29) - Triathlon LChloe CAZIER60712420200'08''33RésultatsSa course
2MS319/06/2022Triathlon de Deauville (14) - MMathieu BOURLET196714112h17'41''257RésultatsSa course
1FS411/06/2022Triathlon des Moines (59) - SJulia FAVRESSE0211212441h17'21''51RésultatsSa course
2FS211/06/2022Triathlon des Moines (59) - SPerrine CLUZEL4811952441h13'47''62RésultatsSa course
1MS322/05/2022Triathlon du Chemin des Dames (02) - SMathieu BOURLET19624441h00'39''314RésultatsSa course
3MVE22/05/2022Triathlon du Chemin des Dames (02) - MMatthieu DEWANCKELE12075882h15'08''180RésultatsSa course
3MVE15/05/2022Triathlon de Choisy-au-Bac (60) - LOlivier BIBOUD9981104h48'42''106RésultatsSa course
3FSE15/05/2022Triathlon de la Vallée de l'Iton (27) - MPerrine CLUZEL4841123242h39'06''64RésultatsSa course
3MVE15/05/2022Triathlon de la Vallée de l'Iton (27) - MMatthieu DEWANCKELE120153242h13'51''101RésultatsSa course
3MS201/05/2022Triathlon de l'Âme (45) - MVincent BRIZION20332692h06'14''223RésultatsSa course
1MS412/09/2021Triathlon du Plan d'Eau du Canada (60) - MJulien DELAFOSSE97122872h10'00''102RésultatsSa course
3MS412/09/2021Triathlon du Plan d'Eau du Canada (60) - MVictor DEBIL CAUX0162872h11'36''99RésultatsSa course
2MS312/09/2021Triathlon du Plan d'Eau du Canada (60) - MMathieu BOURLET19662872h05'21''153RésultatsSa course
2MS412/09/2021Triathlon du Plan d'Eau du Canada (60) - MDamien DUPONT103132872h10'38''102RésultatsSa course
2FS112/09/2021Triathlon du Plan d'Eau du Canada (60) - MMarine FONTES27272022872h51'57''29RésultatsSa course
2MVE05/09/2021Triathlon de Gravelines (59) - MMatthieu DEWANCKELE12073042h09'29''147RésultatsSa course
2MS404/07/2021HalfTriMan (23) - Triathlon LDamien DUPONT10341234h27'58''145RésultatsSa course
3MV404/07/2021HalfTriMan (23) - Triathlon LFrédéric BUREAU64381235h02'33''70RésultatsSa course
1MS204/07/2021HalfTriMan (23) - Triathlon MVincent BRIZION20311302h12'29''205RésultatsSa course
3MS404/07/2021HalfTriMan (23) - Triathlon LJerome LEVARLET9771234h31'21''116RésultatsSa course
1FS404/07/2021HalfTriMan (23) - Triathlon LJulia FAVRESSE04891235h41'11''25RésultatsSa course
3MSE13/06/2021Triathlon des Terres de Normandie (27) - MJulien DELAFOSSE9728822h20'24''68RésultatsSa course
2FS418/10/2020TriGames de Mandelieu (06) - MJulia FAVRESSE0151514073h38'01''63RésultatsSa course
3MSE27/09/2020Duathlon de Deauville (14) - MMathieu BOURLET196310292h00'32''405RésultatsSa course
3MSE15/09/2019Triathlon de Grandvilliers (60) - MJulien DELAFOSSE9791622h11'26''110RésultatsSa course
1MSE15/09/2019Triathlon de Grandvilliers (60) - MMathieu BOURLET19621622h01'53''204RésultatsSa course
3FSE15/09/2019Triathlon de Grandvilliers (60) - MPerrine CLUZEL484721622h39'00''56RésultatsSa course
3MVE03/08/2019Triathlon de la Baie de Somme (80) - MMatthieu DEWANCKELE120112802h11'53''103RésultatsSa course
2MVE07/07/2019Triathlon d'Etaples sur Mer (62) - MMatthieu DEWANCKELE12082652h11'18''130RésultatsSa course
1FVE07/07/2019Triathlon d'Etaples sur Mer (62) - MSandra BEAUVAIS051152652h35'35''56RésultatsSa course
2MVE30/06/2019Ch'TriMan 226 Gravelines (59) - Triathlon XXLPierre TEDESCHI0819510h20'29''118RésultatsSa course
3FV116/06/2019Triathlon du Plan d'Eau du Canada (60) - LSandra BEAUVAIS091402725h35'36''47RésultatsSa course
2MV316/06/2019Triathlon du Plan d'Eau du Canada (60) - LEmmanuel GALBOURDIN0162724h34'28''99RésultatsSa course
3MVE19/05/2019Triathlon du Chemin des Dames (02) - MMatthieu DEWANCKELE120165242h17'06''104RésultatsSa course
3MSE19/05/2019Triathlon du Chemin des Dames (02) - MMathieu BOURLET19635242h09'55''292RésultatsSa course
2MS314/10/2018Triathlon de Bandol (83) - LJulien GALOT95103695h12'34''113RésultatsSa course
2MVE30/09/2018Triathlon d'Ardres (62) - MMatthieu DEWANCKELE120102361h33'27''107RésultatsSa course
1MSE16/09/2018Triathlon de Grandvilliers (60) - MVictor DEBIL CAUX011471h54'24''211RésultatsSa course
2MVE09/09/2018Triathlon d'Etaples sur Mer (62) - MMatthieu DEWANCKELE120103692h14'00''114RésultatsSa course
2MSE09/09/2018Triathlon d'Etaples sur Mer (62) - MVictor DEBIL CAUX023691h59'51''285RésultatsSa course
1FVE09/09/2018Triathlon d'Etaples sur Mer (62) - MSandra BEAUVAIS031113692h35'39''70RésultatsSa course
2MVE02/09/2018Triathlon de Gravelines (59) - MMatthieu DEWANCKELE12093222h09'08''125RésultatsSa course
3MSE26/08/2018Triathlon du Château de Chantilly (60) - MVictor DEBIL CAUX037182h16'51''342RésultatsSa course
2MS419/08/2018Triathlon du Jura Vouglans (39) - LVictor DEBIL CAUX032354h37'17''204RésultatsSa course
3MVE28/07/2018Duathlon de la Baie de Somme (80) - MMatthieu DEWANCKELE120142652h03'55''100RésultatsSa course
2MS417/06/2018Triathlon du Plan d'Eau du Canada (60) - LVictor DEBIL CAUX023244h10'28''266RésultatsSa course
3MSE09/06/2018Triathlon des Moines (59) - MJerome LEVARLET9771542h02'24''122RésultatsSa course
1MVE26/05/2018Triathlon du Calaisis (62) - MMatthieu DEWANCKELE12082372h17'34''127RésultatsSa course
2MS327/08/2017Triathlon du Mont Blanc (74) - LJulien GALOT9581535h00'23''114RésultatsSa course
1MS426/08/2017Triathlon du Mont Blanc (74) - MVictor DEBIL CAUX042912h27'18''194RésultatsSa course
1MS405/08/2017Triathlon de la Baie de Somme (80) - MVictor DEBIL CAUX022732h00'47''250RésultatsSa course
1MS416/07/2017Triathlon du Val de Gray (70) - MVictor DEBIL CAUX0173332h09'36''100RésultatsSa course
3MS402/07/2017Triathlon du Plan d'Eau du Canada (60) - LLucien LOYER083104h19'29''137RésultatsSa course
1MV502/07/2017Triathlon du Plan d'Eau du Canada (60) - LChristian DELAFONTAINE01313105h14'05''59RésultatsSa course
2MS402/07/2017Triathlon du Plan d'Eau du Canada (60) - LVictor DEBIL CAUX063104h15'58''158RésultatsSa course
3MV202/07/2017Triathlon du Plan d'Eau du Canada (60) - LEmmanuel GALBOURDIN0263104h32'49''95RésultatsSa course
3MVE25/06/2017Triathlon d'Etaples sur Mer (62) - MMatthieu DEWANCKELE120143192h11'02''102RésultatsSa course
2MVE21/05/2017Triathlon du Chemin des Dames (02) - MMatthieu DEWANCKELE12094472h10'47''135RésultatsSa course
3MS314/05/2017Triathlon de Mayenne (53) - MJulien GALOT95121692h16'10''98RésultatsSa course
2MV507/05/2017Lacanau Tri'Events (33) - Triathlon LChristian DELAFONTAINE02616094h56'19''58RésultatsSa course
1MSE11/09/2016Triathlon d'Auxonne (21) - MCyril VIENNOT28411671h44'43''226RésultatsSa course
2MS206/08/2016Triathlon de la Baie de Somme (80) - MMathieu BOURLET196142782h13'23''100RésultatsSa course
1MS319/06/2016Triathlon du Plan d'Eau du Canada (60) - LCyril VIENNOT28414573h51'10''352RésultatsSa course
2MV419/06/2016Triathlon du Plan d'Eau du Canada (60) - LChristian DELAFONTAINE01994575h15'18''57RésultatsSa course
1MSE05/09/2015Triath'Long Côte de Beauté (17) - Triathlon LCyril VIENNOT28415614h01'06''388RésultatsSa course
1MSE29/08/2015Triathlon du Château de Chantilly (60) - LVictor DEBIL CAUX013184h04'23''299RésultatsSa course
1MS322/08/2015Triathlon du Mont Blanc (74) - LVictor DEBIL CAUX012214h41'51''255RésultatsSa course
2MV201/08/2015Triathlon de la Baie de Somme (80) - MEmmanuel GALBOURDIN0172352h09'44''97RésultatsSa course
1MSE19/07/2015Triathlon du Val de Gray (70) - MCyril VIENNOT28411481h56'32''210RésultatsSa course
1MS428/06/2015Triathlon de Fains (27) - Format MMatthieu DEWANCKELE12061782h23'33''131RésultatsSa course
1MS321/06/2015Triathlon du Plan d'Eau du Canada (60) - LVictor DEBIL CAUX012844h02'36''285RésultatsSa course
1MV221/06/2015Triathlon du Plan d'Eau du Canada (60) - LEmmanuel GALBOURDIN0192844h24'56''98RésultatsSa course
2MS321/06/2015Triathlon du Plan d'Eau du Canada (60) - LDaniel SABIN032844h11'53''228RésultatsSa course
3FS421/06/2015Triathlon du Plan d'Eau du Canada (60) - LSandra BEAUVAIS061552845h30'02''46RésultatsSa course
3MSE06/06/2015Triathlon de Deauville (14) - LVictor DEBIL CAUX038504h04'23''370RésultatsSa course
2MSE25/05/2015Triathlon de la Vienne (86) - MVictor DEBIL CAUX021231h59'01''183RésultatsSa course
1MSE17/05/2015Triathlon de Choisy-au-Bac (60) - LVictor DEBIL CAUX013083h57'20''295RésultatsSa course
3MS306/09/2014Triathlon de Gérardmer (88) - LDaniel SABIN01512984h54'49''110RésultatsSa course
3MS315/08/2014EmbrunMan - Triathlon XXL (05)Victor DEBIL CAUX0696410h31'08''241RésultatsSa course
2MS306/07/2014Ch'TriMan 113 Gravelines (59) - Triathlon LDaniel SABIN0266064h30'45''100RésultatsSa course
3ELM06/07/2014Ch'TriMan 113 Gravelines (59) - Triathlon LCyril VIENNOT28436064h11'24''317RésultatsSa course
2MS314/06/2014Triathlon de Deauville (14) - LVictor DEBIL CAUX035474h33'09''303RésultatsSa course
1MSE08/06/2014Triathlon des Lacs de l'Aube (10) - LCyril VIENNOT28414573h59'07''352RésultatsSa course
2MS307/09/2013Triathlon de Gérardmer (88) - LDaniel SABIN01413074h48'28''111RésultatsSa course
2FSE30/06/2013Triathlon de Choisy-au-Bac (60) - LSandra BEAUVAIS031233825h17'04''69RésultatsSa course
2MS309/06/2013Triathlon de Deauville (14) - LVictor DEBIL CAUX022944h26'13''262RésultatsSa course
1MSE02/06/2013Triathlon de Belfort (90) - LDaniel SABIN0229704h39'53''105RésultatsSa course
2MSE02/06/2013Triathlon des Lacs de l'Aube (10) - LVictor DEBIL CAUX024214h02'06''307RésultatsSa course
2FS426/05/2013Triathlon de Vendome (41) - LSandra BEAUVAIS062203885h28'07''44RésultatsSa course
1MS328/04/2013Duathlon de Douai (59) - LVictor DEBIL CAUX011903h18'00''240RésultatsSa course
1MS301/09/2012Triathlon de Gérardmer (88) - LVictor DEBIL CAUX01012054h52'14''148RésultatsSa course
1MS301/07/2012Triathlon de Dijon (21) - LVictor DEBIL CAUX042214h33'01''178RésultatsSa course
1M3017/06/2012Triathlon de Deauville (14) - LVictor DEBIL CAUX064773h25'43''183RésultatsSa course
2MS320/05/2012Triathlon de Palavas les Flots (34) - LGreg VERSCHUERE033484h20'27''249RésultatsSa course
1MS313/05/2012Duath'Long de Cambrai (59)Victor DEBIL CAUX0172563h01'54''98RésultatsSa course
1MS322/04/2012Duathlon de Douai (59) - LVictor DEBIL CAUX021973h23'57''222RésultatsSa course
3MS229/05/2011Triathlon de Belfort (90) - LVictor DEBIL CAUX096974h21'00''153RésultatsSa course
3MS429/05/2011Triathlon de Vendome (41) - LDavid BONNAL11284134h49'39''148RésultatsSa course
3MS224/04/2011Duathlon de Douai (59) - LVictor DEBIL CAUX041643h23'01''160RésultatsSa course
3MS204/09/2010Triathlon de Gérardmer (88) - LDaniel SABIN02910585h03'28''103RésultatsSa course
1MXX25/07/2010Duathlon de Fos - Val d'Aran (31) - LDavid BONNAL112261453h46'17''85RésultatsSa course
1MS204/07/2010Triathlon de Dijon (21) - LDaniel SABIN0315084h36'35''98RésultatsSa course
2M3506/09/2009IronMan 70.3 MonacoLaurent LAMBERT02211294h35'51''105RésultatsSa course
1MS331/05/2009Triathlon de Vendome (41) - LDavid BONNAL11244264h45'29''228RésultatsSa course
1MS410/05/2009Triathlon du Sud (30) - LLaurent LAMBERT043484h11'27''211RésultatsSa course
3MS405/06/2005Triathlon de Lorient (56) - LEmmanuel GALBOURDIN0534054h32'17''89RésultatsSa course

Résultats aux championnats de France

DateNomIPRClt FCltNbTempsGAClt/GA
18/09/2021Armand BICHON43741032h16'57''MV215RésultatsSa course
23/08/2020Armand BICHON431201572h23'24''MV121RésultatsSa course
13/04/2019Xavier DREUMONT781812041h12'02''MV212RésultatsSa course
07/07/2018Matthieu DEWANCKELE120896485h08'01''MV112RésultatsSa course
29/04/2018Julien GALOT95832123h47'28''MS321RésultatsSa course
29/04/2018Kamal EL OUAFI901152124h02'28''MS424RésultatsSa course
06/07/2014Cyril VIENNOT28434574h11'24''ELM3RésultatsSa course
06/07/2014Daniel SABIN0264574h30'45''MS32RésultatsSa course
06/07/2014Matthieu DEWANCKELE120804574h51'45''MS413RésultatsSa course
06/07/2014Arnold WALLOIS713324575h43'49''ELM19RésultatsSa course
03/07/2011Matthieu DEWANCKELE120884854h44'37''MGA34RésultatsSa course
03/07/2011Matthieu LOMBARD02934855h24'15''MGA129RésultatsSa course
03/07/2011Olivier FROISSART03914855h46'05''MGA157RésultatsSa course
03/07/2011Lucien LOYER0804854h42'25''MGA30RésultatsSa course

Coureurs actuels du Club

Vincent BRIZION
IPR : 203
Catégorie de niveau : Elite 2ème classe
Mathieu BOURLET
IPR : 196
Catégorie de niveau : Elite 3ème classe
Matthieu DEWANCKELE
IPR : 120
Catégorie de niveau : Elite 3ème classe
Etienne BROISSART
IPR : 112
Catégorie de niveau : Elite 3ème classe
Olivier BIBOUD
IPR : 99
Catégorie de niveau : 1ère catégorie
Julien DELAFOSSE
IPR : 97
Catégorie de niveau : 1ère catégorie
Antoine VOTTE
IPR : 97
Catégorie de niveau : 1ère catégorie
Jerome LEVARLET
IPR : 97
Catégorie de niveau : 1ère catégorie
Kamal EL OUAFI
IPR : 90
Catégorie de niveau : 2ème catégorie
Mathieu BLERIOT
IPR : 89
Catégorie de niveau : 2ème catégorie
Olivier MASURE
IPR : 85
Catégorie de niveau : 2ème catégorie
Xavier DREUMONT
IPR : 78
Catégorie de niveau : 2ème catégorie
Julien CARPENTIER
IPR : 77
Catégorie de niveau : 2ème catégorie
Damien DAYDE
IPR : 70
Catégorie de niveau : 3ème catégorie
Nuno FERNANDES
IPR : 64
Catégorie de niveau : 3ème catégorie
Frédéric BUREAU
IPR : 64
Catégorie de niveau : 3ème catégorie
Chloe CAZIER
IPR : 60
Catégorie de niveau : 3ème catégorie
Frederic COLOMB
IPR : 56
Catégorie de niveau : 3ème catégorie
Ugo TERNISIEN
IPR : 55
Catégorie de niveau : 4ème catégorie
Jérémy DAVID
IPR : 50
Catégorie de niveau : 4ème catégorie
Perrine CLUZEL
IPR : 48
Catégorie de niveau : 3ème catégorie
Cedric BOULLAND
IPR : 44
Catégorie de niveau : 4ème catégorie
Jeremy DELVILLE
IPR : N/A
Catégorie de niveau : Non classé
Matthieu LOMBARD
IPR : N/A
Catégorie de niveau : Non classé
Coline GRABINSKI
IPR : N/A
Catégorie de niveau : Non classée
Julia FAVRESSE
IPR : N/A
Catégorie de niveau : Non classée
Sacha LESCORNET
IPR : N/A
Catégorie de niveau : Non classé
Noel HOUGUENADE
IPR : N/A
Catégorie de niveau : Non classé
Sandra BEAUVAIS
IPR : N/A
Catégorie de niveau : Non classée
Charline BONNAY
IPR : N/A
Catégorie de niveau : Non classée
Laurent MINGAM
IPR : N/A
Catégorie de niveau : Non classé
Jean-baptiste RICHARD
IPR : N/A
Catégorie de niveau : Non classé
Daniel SABIN
IPR : N/A
Catégorie de niveau : Non classé
Pascal BERNARD
IPR : N/A
Catégorie de niveau : Non classé